Database: COMPET-N - COOP - 3PL - 4PL - CNDOOM

WAD: Doom | Doom 2 | TNT | Plutonia | AV | HR | Scythe | MM | MM2 | Requiem | CE
Category: speed | nmare | max | nm100s | tyson | pacifist | fast | respawn | nomo | misc | built | all
Highscore: ALL | IWAD | PWAD | Country | Continent

< Previous map       Next map >
Remove: wad | map | category | player | allE1M9
MapPlayerTimeDateFilenameCommentsDL
E1M9: Military BaseVincent Catalaa29.001999-10-30e1m9-029.zip - 277
E1M9: Military BaseAdam Williamson30.001999-10-30e1m9-030.zip - 153
E1M9: Military BaseAdam Williamson31.001999-10-28e1m9-031.zip - 158
E1M9: Military BaseAdam Hegyi34.001999-07-30e1m9-034.zip - 170
E1M9: Military BaseAnders Johnsen37.001998-08-13e1m9-037.zip - 164
E1M9: Military BaseDaniel Lindgren39.001996-11-12e1m9-039.zip - 188
E1M9: Military BaseEelco de Vries3:19.001995-06-29e1m9-319.zip - 97
E1M9: Military BaseEelco de Vries3:25.001995-06-15e1m9-325.zip - 102
E1M9: Military BaseDrew DeVore46.002001-11-16n1m9-046.zip - 297
E1M9: Military BaseJonathan Rimmer50.002000-08-06n1m9-050.zip - 107
E1M9: Military BaseAdam Williamson58.002000-08-04n1m9-058.zip - 156
E1M9: Military BaseChris Ratcliff1:04.002000-07-31n1m9-104.zip - 170
E1M9: Military BaseJan Endre Jansen1:30.001999-02-08n1m9-130.zip - 97
E1M9: Military BaseDonatas Tamonis1:57.001998-12-13n1m9-157.zip - 84
E1M9: Military BaseAnton V. Magleli2:22.001996-04-10e1m9-nm2.zip - 124
E1M9: Military BaseTatsuya Ito2:11.002019-01-09e1m9-211.zip - 315
E1M9: Military BaseDrew DeVore2:15.002012-01-24e1m9-215.zip - 289
E1M9: Military BaseDrew DeVore2:16.002002-07-30e1m9-216.zip - 172
E1M9: Military BaseRadek Pecka2:34.002000-08-24e1m9-234.zip - 127
E1M9: Military BaseAnders Johnsen2:42.001998-08-13e1m9-242.zip - 110
E1M9: Military BasePeo Sjoblom2:48.001997-06-27e1m9-248.zip - 121
E1M9: Military BaseWade Cayton3:18.001996-05-29e1m9-318.zip - 97
E1M9: Military BaseAndreas Kren3:40.001995-11-25e1m9-340.zip - 90
E1M9: Military BaseThomas Zajic3:55.001995-10-06e1m9-355.zip - 95
E1M9: Military BaseEelco de Vries5:00.001995-06-06e1m9-500.zip - 82
E1M9: Military BaseEelco de Vries5:28.001995-04-05e1m9-528.zip - 82
E1M9: Military BaseDrew DeVore1:02.002002-05-12n1s9-102.zip - 247
E1M9: Military BaseRadek Pecka1:15.002002-05-09n1s9-115.zip - 134
E1M9: Military BaseAdam Williamson1:25.002000-08-05n1s9-125.zip - 139
E1M9: Military BaseChris Ratcliff2:00.002000-05-05n1s9-200.zip - 149
E1M9: Military BaseAdam Hegyi2:10.001999-06-30n1s9-210.zip - 138
E1M9: Military BaseRadek Pecka4:36.002002-11-20t1m9-436.zip - 242
E1M9: Military BaseJim Leonard4:47.002002-06-07t1m9-447.zip - 200
E1M9: Military BaseRadek Pecka4:48.002001-12-03t1m9-448.zip - 172
E1M9: Military BaseAnders Johnsen5:31.001999-03-07t1m9-531.zip - 130
E1M9: Military BaseSteffen Udluft7:30.001998-11-27t1m9-730.zip - 129
E1M9: Military BasePatrick Martin12:51.001997-05-30t1m91251.zip - 87
E1M9: Military BaseSelim Benabdelkhalek33.002004-02-04p1m9-033.zip - 270
E1M9: Military BaseSelim Benabdelkhalek38.002000-09-11p1m9-038.zip - 134
E1M9: Military BaseJonathan Rimmer40.002000-03-08p1m9-040.zip - 157
E1M9: Military BaseVincent Catalaa50.002000-01-12p1m9-050.zip - 139
E1M9: Military BaseSteffen Udluft1:25.001999-07-28p1m9-125.zip - 112
E1M9: Military BaseRobert J. Reevy1:31.001999-07-05p1m9-131.zip - 93
E1M9: Military BaseSteffen Udluft1:52.001998-12-01p1m9-152.zip - 91
E1M9: Military BaseM. Phoenix Dailey2:23.002015-09-20f1m9-223.zip - 253
E1M9: Military BaseM. Phoenix Dailey2:28.002015-09-16f1m9-228.zip - 192
E1M9: Military BaseM. Phoenix Dailey2:32.002015-09-13f1m9-232.zip297
E1M9: Military BaseM. Phoenix Dailey2:36.002015-09-12f1m9-236.zip - 202
E1M9: Military BaseM. Phoenix Dailey2:47.002015-09-06f1m9-247.zip - 192
E1M9: Military BaseAnders Johnsen2:54.002000-03-07f1m9-254.zip - 142
E1M9: Military BaseChris Ratcliff3:17.002000-03-06f1m9-317.zip - 145
E1M9: Military BaseAnders Johnsen3:51.001999-04-04f1m9-351.zip - 139
E1M9: Military BaseJan Endre Jansen4:06.001998-08-15f1m9-406.zip - 84
E1M9: Military BaseThomas Pilger6:15.001998-04-01f1m9-615.zip - 123
E1M9: Military BaseMate Crnčević2:07.002013-08-17r1m9-207.zip - 341
E1M9: Military BaseRadek Pecka2:15.002000-08-27r1m9-215.zip - 141
E1M9: Military BaseJan Endre Jansen2:27.001998-10-03r1m9-227.zip - 97
E1M9: Military BaseSteffen Udluft3:08.001997-12-13r1m9-308.zip - 141
E1M9: Military BaseArno Slagboom27.772000-05-04u1902777.zip - 246
Remove: wad | map | category | player | all